sensor_id;sensor_type;location;lat;lon;timestamp;pressure;altitude;pressure_sealevel;temperature;humidity
5812;BME280;2932;52.400;9.558;2022-08-14T00:00:27;100847.19;;;24.70;65.15
5812;BME280;2932;52.400;9.558;2022-08-14T00:02:52;100842.97;;;24.58;65.85
5812;BME280;2932;52.400;9.558;2022-08-14T00:05:19;100851.81;;;24.41;66.24
5812;BME280;2932;52.400;9.558;2022-08-14T00:07:46;100838.91;;;24.40;66.36
5812;BME280;2932;52.400;9.558;2022-08-14T00:10:17;100845.44;;;24.56;66.16
5812;BME280;2932;52.400;9.558;2022-08-14T00:12:46;100845.59;;;24.49;66.24
5812;BME280;2932;52.400;9.558;2022-08-14T00:15:33;100850.16;;;24.43;66.46
5812;BME280;2932;52.400;9.558;2022-08-14T00:18:00;100862.22;;;24.27;66.68
5812;BME280;2932;52.400;9.558;2022-08-14T00:20:28;100858.59;;;24.04;67.73
5812;BME280;2932;52.400;9.558;2022-08-14T00:22:54;100863.09;;;24.01;67.70
5812;BME280;2932;52.400;9.558;2022-08-14T00:25:20;100862.75;;;23.99;68.22
5812;BME280;2932;52.400;9.558;2022-08-14T00:27:45;100863.63;;;23.96;67.84
5812;BME280;2932;52.400;9.558;2022-08-14T00:30:12;100864.53;;;23.89;68.51
5812;BME280;2932;52.400;9.558;2022-08-14T00:32:38;100852.81;;;24.11;68.39
5812;BME280;2932;52.400;9.558;2022-08-14T00:35:05;100854.84;;;24.10;68.18
5812;BME280;2932;52.400;9.558;2022-08-14T00:37:31;100855.72;;;24.07;68.01
5812;BME280;2932;52.400;9.558;2022-08-14T00:39:57;100847.28;;;24.04;67.97
5812;BME280;2932;52.400;9.558;2022-08-14T00:42:23;100846.72;;;24.12;67.85
5812;BME280;2932;52.400;9.558;2022-08-14T00:44:49;100844.69;;;24.13;67.88
5812;BME280;2932;52.400;9.558;2022-08-14T00:47:16;100846.78;;;24.32;67.31
5812;BME280;2932;52.400;9.558;2022-08-14T00:49:43;100843.59;;;24.30;67.13
5812;BME280;2932;52.400;9.558;2022-08-14T00:52:10;100839.97;;;24.30;67.32
5812;BME280;2932;52.400;9.558;2022-08-14T00:54:35;100838.47;;;24.41;66.88
5812;BME280;2932;52.400;9.558;2022-08-14T00:57:04;100841.50;;;24.34;66.75
5812;BME280;2932;52.400;9.558;2022-08-14T00:59:30;100835.09;;;24.30;66.78
5812;BME280;2932;52.400;9.558;2022-08-14T01:01:57;100838.00;;;24.26;67.00
5812;BME280;2932;52.400;9.558;2022-08-14T01:04:24;100831.47;;;24.30;67.06
5812;BME280;2932;52.400;9.558;2022-08-14T01:06:50;100834.03;;;24.20;66.99
5812;BME280;2932;52.400;9.558;2022-08-14T01:09:17;100826.72;;;24.23;67.08
5812;BME280;2932;52.400;9.558;2022-08-14T01:11:48;100823.94;;;24.00;67.82
5812;BME280;2932;52.400;9.558;2022-08-14T01:14:15;100822.03;;;23.50;69.94
5812;BME280;2932;52.400;9.558;2022-08-14T01:16:40;100816.13;;;23.17;71.34
5812;BME280;2932;52.400;9.558;2022-08-14T01:19:05;100815.81;;;23.12;71.73
5812;BME280;2932;52.400;9.558;2022-08-14T01:21:49;100820.47;;;22.68;73.82
5812;BME280;2932;52.400;9.558;2022-08-14T01:24:15;100821.19;;;23.03;73.16
5812;BME280;2932;52.400;9.558;2022-08-14T01:26:41;100819.59;;;23.25;72.29
5812;BME280;2932;52.400;9.558;2022-08-14T01:29:07;100819.25;;;22.69;73.33
5812;BME280;2932;52.400;9.558;2022-08-14T01:31:35;100818.94;;;22.60;74.25
5812;BME280;2932;52.400;9.558;2022-08-14T01:34:19;100807.09;;;22.72;73.51
5812;BME280;2932;52.400;9.558;2022-08-14T01:36:48;100806.47;;;22.88;73.55
5812;BME280;2932;52.400;9.558;2022-08-14T01:39:15;100802.44;;;23.16;72.00
5812;BME280;2932;52.400;9.558;2022-08-14T01:41:43;100800.63;;;23.02;72.67
5812;BME280;2932;52.400;9.558;2022-08-14T01:44:12;100803.75;;;22.81;74.90
5812;BME280;2932;52.400;9.558;2022-08-14T01:46:41;100805.50;;;22.41;76.20
5812;BME280;2932;52.400;9.558;2022-08-14T01:49:10;100805.88;;;22.73;74.71
5812;BME280;2932;52.400;9.558;2022-08-14T01:51:37;100797.53;;;22.93;73.44
5812;BME280;2932;52.400;9.558;2022-08-14T01:54:29;100800.63;;;22.75;72.74
5812;BME280;2932;52.400;9.558;2022-08-14T01:56:56;100794.78;;;22.59;73.82
5812;BME280;2932;52.400;9.558;2022-08-14T01:59:26;100793.59;;;22.87;72.68
5812;BME280;2932;52.400;9.558;2022-08-14T02:01:58;100784.34;;;22.86;72.43
5812;BME280;2932;52.400;9.558;2022-08-14T02:04:26;100777.41;;;22.91;72.31
5812;BME280;2932;52.400;9.558;2022-08-14T02:06:52;100777.69;;;23.00;72.18
5812;BME280;2932;52.400;9.558;2022-08-14T02:09:19;100776.28;;;23.12;71.54
5812;BME280;2932;52.400;9.558;2022-08-14T02:11:46;100781.81;;;23.19;71.40
5812;BME280;2932;52.400;9.558;2022-08-14T02:14:12;100766.09;;;23.18;71.05
5812;BME280;2932;52.400;9.558;2022-08-14T02:16:42;100769.38;;;23.16;70.86
5812;BME280;2932;52.400;9.558;2022-08-14T02:19:13;100765.53;;;23.26;70.81
5812;BME280;2932;52.400;9.558;2022-08-14T02:21:41;100772.34;;;23.06;71.04
5812;BME280;2932;52.400;9.558;2022-08-14T02:24:08;100769.28;;;22.97;72.28
5812;BME280;2932;52.400;9.558;2022-08-14T02:26:36;100759.81;;;22.53;74.66
5812;BME280;2932;52.400;9.558;2022-08-14T02:29:08;100756.28;;;22.76;73.87
5812;BME280;2932;52.400;9.558;2022-08-14T02:31:36;100765.34;;;22.90;73.43
5812;BME280;2932;52.400;9.558;2022-08-14T02:36:36;100757.97;;;23.20;71.77
5812;BME280;2932;52.400;9.558;2022-08-14T02:39:04;100754.31;;;23.00;71.52
5812;BME280;2932;52.400;9.558;2022-08-14T02:41:29;100756.38;;;22.95;72.12
5812;BME280;2932;52.400;9.558;2022-08-14T02:43:56;100763.13;;;23.02;71.61
5812;BME280;2932;52.400;9.558;2022-08-14T02:46:22;100759.63;;;22.94;71.74
5812;BME280;2932;52.400;9.558;2022-08-14T02:48:47;100747.59;;;22.90;72.51
5812;BME280;2932;52.400;9.558;2022-08-14T02:51:13;100741.22;;;22.86;72.39
5812;BME280;2932;52.400;9.558;2022-08-14T02:53:41;100731.34;;;22.98;71.97
5812;BME280;2932;52.400;9.558;2022-08-14T02:56:08;100737.47;;;22.92;72.29
5812;BME280;2932;52.400;9.558;2022-08-14T02:58:37;100732.69;;;22.89;72.10
5812;BME280;2932;52.400;9.558;2022-08-14T03:01:05;100740.09;;;22.80;72.48
5812;BME280;2932;52.400;9.558;2022-08-14T03:03:32;100737.84;;;22.94;71.93
5812;BME280;2932;52.400;9.558;2022-08-14T03:05:58;100738.53;;;23.02;71.89
5812;BME280;2932;52.400;9.558;2022-08-14T03:08:24;100733.69;;;23.03;71.83
5812;BME280;2932;52.400;9.558;2022-08-14T03:10:56;100734.66;;;22.92;71.83
5812;BME280;2932;52.400;9.558;2022-08-14T03:13:22;100730.44;;;23.04;71.84
5812;BME280;2932;52.400;9.558;2022-08-14T03:15:49;100735.13;;;23.14;71.13
5812;BME280;2932;52.400;9.558;2022-08-14T03:18:18;100729.53;;;23.11;71.28
5812;BME280;2932;52.400;9.558;2022-08-14T03:20:47;100727.53;;;22.84;72.65
5812;BME280;2932;52.400;9.558;2022-08-14T03:23:12;100728.16;;;22.95;72.21
5812;BME280;2932;52.400;9.558;2022-08-14T03:25:39;100722.94;;;22.94;72.24
5812;BME280;2932;52.400;9.558;2022-08-14T03:28:06;100717.69;;;22.96;72.25
5812;BME280;2932;52.400;9.558;2022-08-14T03:30:32;100717.72;;;22.92;71.99
5812;BME280;2932;52.400;9.558;2022-08-14T03:32:58;100718.09;;;22.94;72.38
5812;BME280;2932;52.400;9.558;2022-08-14T03:35:24;100714.44;;;22.98;71.87
5812;BME280;2932;52.400;9.558;2022-08-14T03:37:51;100722.69;;;22.58;73.06
5812;BME280;2932;52.400;9.558;2022-08-14T03:40:19;100718.59;;;22.62;73.47
5812;BME280;2932;52.400;9.558;2022-08-14T03:42:44;100717.63;;;22.73;73.18
5812;BME280;2932;52.400;9.558;2022-08-14T03:45:10;100715.16;;;22.78;72.22
5812;BME280;2932;52.400;9.558;2022-08-14T03:47:35;100700.44;;;22.90;72.08
5812;BME280;2932;52.400;9.558;2022-08-14T03:50:05;100700.38;;;22.94;71.91
5812;BME280;2932;52.400;9.558;2022-08-14T03:52:33;100703.50;;;23.00;71.56
5812;BME280;2932;52.400;9.558;2022-08-14T03:54:59;100701.41;;;23.04;71.67
5812;BME280;2932;52.400;9.558;2022-08-14T03:57:26;100693.38;;;23.02;71.76
5812;BME280;2932;52.400;9.558;2022-08-14T03:59:54;100692.53;;;23.05;71.29
5812;BME280;2932;52.400;9.558;2022-08-14T04:02:19;100691.06;;;22.97;71.72
5812;BME280;2932;52.400;9.558;2022-08-14T04:04:46;100682.69;;;22.90;71.87
5812;BME280;2932;52.400;9.558;2022-08-14T04:07:11;100686.94;;;22.78;72.38
5812;BME280;2932;52.400;9.558;2022-08-14T04:09:37;100693.38;;;22.79;72.40
5812;BME280;2932;52.400;9.558;2022-08-14T04:12:02;100684.25;;;22.68;72.92
5812;BME280;2932;52.400;9.558;2022-08-14T04:14:30;100684.03;;;22.82;72.75
5812;BME280;2932;52.400;9.558;2022-08-14T04:16:55;100680.84;;;22.80;72.54
5812;BME280;2932;52.400;9.558;2022-08-14T04:19:21;100685.75;;;22.76;72.82
5812;BME280;2932;52.400;9.558;2022-08-14T04:21:48;100686.19;;;22.74;72.74
5812;BME280;2932;52.400;9.558;2022-08-14T04:24:15;100687.41;;;22.73;73.09
5812;BME280;2932;52.400;9.558;2022-08-14T04:26:41;100683.19;;;22.85;72.82
5812;BME280;2932;52.400;9.558;2022-08-14T04:29:10;100686.59;;;22.73;72.92
5812;BME280;2932;52.400;9.558;2022-08-14T04:31:37;100683.47;;;22.67;73.30
5812;BME280;2932;52.400;9.558;2022-08-14T04:34:03;100677.22;;;22.79;73.03
5812;BME280;2932;52.400;9.558;2022-08-14T04:36:30;100680.19;;;22.95;72.39
5812;BME280;2932;52.400;9.558;2022-08-14T04:38:56;100670.69;;;22.59;73.33
5812;BME280;2932;52.400;9.558;2022-08-14T04:41:40;100675.25;;;22.76;72.74
5812;BME280;2932;52.400;9.558;2022-08-14T04:44:24;100664.50;;;22.94;72.80
5812;BME280;2932;52.400;9.558;2022-08-14T04:46:49;100659.81;;;22.84;72.82
5812;BME280;2932;52.400;9.558;2022-08-14T04:49:33;100663.66;;;22.71;73.51
5812;BME280;2932;52.400;9.558;2022-08-14T04:52:00;100659.09;;;22.80;72.95
5812;BME280;2932;52.400;9.558;2022-08-14T04:54:28;100658.47;;;22.92;72.88
5812;BME280;2932;52.400;9.558;2022-08-14T04:56:54;100663.13;;;23.03;72.33
5812;BME280;2932;52.400;9.558;2022-08-14T04:59:21;100653.06;;;23.02;72.09
5812;BME280;2932;52.400;9.558;2022-08-14T05:01:47;100645.78;;;23.04;72.21
5812;BME280;2932;52.400;9.558;2022-08-14T05:04:12;100638.84;;;23.09;72.27
5812;BME280;2932;52.400;9.558;2022-08-14T05:06:38;100643.50;;;23.19;71.94
5812;BME280;2932;52.400;9.558;2022-08-14T05:09:04;100636.03;;;23.09;71.96
5812;BME280;2932;52.400;9.558;2022-08-14T05:11:30;100648.78;;;23.17;72.27
5812;BME280;2932;52.400;9.558;2022-08-14T05:14:00;100646.22;;;23.22;71.54
5812;BME280;2932;52.400;9.558;2022-08-14T05:16:26;100646.44;;;23.12;71.93
5812;BME280;2932;52.400;9.558;2022-08-14T05:18:55;100640.00;;;23.11;72.14
5812;BME280;2932;52.400;9.558;2022-08-14T05:21:20;100646.16;;;23.26;71.66
5812;BME280;2932;52.400;9.558;2022-08-14T05:23:47;100640.22;;;23.20;71.58
5812;BME280;2932;52.400;9.558;2022-08-14T05:26:12;100646.97;;;23.26;71.33
5812;BME280;2932;52.400;9.558;2022-08-14T05:28:41;100645.16;;;23.36;71.31
5812;BME280;2932;52.400;9.558;2022-08-14T05:31:15;100638.00;;;23.51;71.08
5812;BME280;2932;52.400;9.558;2022-08-14T05:33:44;100631.97;;;23.53;70.56
5812;BME280;2932;52.400;9.558;2022-08-14T05:36:11;100631.28;;;23.45;71.14
5812;BME280;2932;52.400;9.558;2022-08-14T05:38:38;100630.22;;;23.59;70.81
5812;BME280;2932;52.400;9.558;2022-08-14T05:41:10;100625.34;;;23.59;70.83
5812;BME280;2932;52.400;9.558;2022-08-14T05:43:37;100622.06;;;23.81;70.38
5812;BME280;2932;52.400;9.558;2022-08-14T05:46:03;100616.94;;;23.76;70.75
5812;BME280;2932;52.400;9.558;2022-08-14T05:48:29;100620.56;;;23.76;70.49
5812;BME280;2932;52.400;9.558;2022-08-14T05:50:55;100616.00;;;23.82;70.20
5812;BME280;2932;52.400;9.558;2022-08-14T05:53:22;100608.97;;;23.71;70.38
5812;BME280;2932;52.400;9.558;2022-08-14T05:55:48;100606.28;;;23.83;70.53
5812;BME280;2932;52.400;9.558;2022-08-14T05:58:13;100605.25;;;23.93;70.34
5812;BME280;2932;52.400;9.558;2022-08-14T06:00:41;100605.78;;;24.05;70.01
5812;BME280;2932;52.400;9.558;2022-08-14T06:03:09;100611.78;;;24.07;69.64
5812;BME280;2932;52.400;9.558;2022-08-14T06:05:35;100612.22;;;24.05;69.80
5812;BME280;2932;52.400;9.558;2022-08-14T06:08:01;100609.59;;;24.14;69.65
5812;BME280;2932;52.400;9.558;2022-08-14T06:10:28;100609.22;;;24.32;69.18
5812;BME280;2932;52.400;9.558;2022-08-14T06:12:55;100599.22;;;24.27;69.47
5812;BME280;2932;52.400;9.558;2022-08-14T06:15:21;100598.84;;;24.42;69.15
5812;BME280;2932;52.400;9.558;2022-08-14T06:17:52;100590.81;;;24.40;69.26
5812;BME280;2932;52.400;9.558;2022-08-14T06:20:20;100590.13;;;24.52;68.56
5812;BME280;2932;52.400;9.558;2022-08-14T06:22:46;100587.72;;;24.51;68.88
5812;BME280;2932;52.400;9.558;2022-08-14T06:25:12;100590.22;;;24.65;68.39
5812;BME280;2932;52.400;9.558;2022-08-14T06:27:45;100588.78;;;24.57;68.28
5812;BME280;2932;52.400;9.558;2022-08-14T06:30:16;100594.94;;;24.84;67.47
5812;BME280;2932;52.400;9.558;2022-08-14T06:32:42;100590.41;;;24.87;67.76
5812;BME280;2932;52.400;9.558;2022-08-14T06:35:09;100594.75;;;24.91;67.85
5812;BME280;2932;52.400;9.558;2022-08-14T06:37:41;100595.84;;;24.98;67.97
5812;BME280;2932;52.400;9.558;2022-08-14T06:40:07;100601.22;;;25.08;67.23
5812;BME280;2932;52.400;9.558;2022-08-14T06:42:33;100595.56;;;25.08;67.06
5812;BME280;2932;52.400;9.558;2022-08-14T06:44:58;100601.03;;;25.15;66.82
5812;BME280;2932;52.400;9.558;2022-08-14T06:47:25;100598.84;;;25.19;66.75
5812;BME280;2932;52.400;9.558;2022-08-14T06:49:51;100600.06;;;25.35;66.91
5812;BME280;2932;52.400;9.558;2022-08-14T06:52:16;100601.44;;;25.43;66.62
5812;BME280;2932;52.400;9.558;2022-08-14T06:54:42;100605.78;;;25.47;65.90
5812;BME280;2932;52.400;9.558;2022-08-14T06:57:07;100610.34;;;25.57;66.37
5812;BME280;2932;52.400;9.558;2022-08-14T06:59:33;100602.31;;;25.69;66.03
5812;BME280;2932;52.400;9.558;2022-08-14T07:01:58;100606.91;;;25.50;66.20
5812;BME280;2932;52.400;9.558;2022-08-14T07:04:42;100599.06;;;25.41;66.22
5812;BME280;2932;52.400;9.558;2022-08-14T07:07:37;100599.56;;;25.52;66.35
5812;BME280;2932;52.400;9.558;2022-08-14T07:10:03;100601.25;;;25.63;65.92
5812;BME280;2932;52.400;9.558;2022-08-14T07:12:29;100595.88;;;25.68;66.28
5812;BME280;2932;52.400;9.558;2022-08-14T07:14:54;100593.16;;;25.77;65.99
5812;BME280;2932;52.400;9.558;2022-08-14T07:17:19;100593.06;;;25.81;65.43
5812;BME280;2932;52.400;9.558;2022-08-14T07:19:45;100594.06;;;25.74;65.19
5812;BME280;2932;52.400;9.558;2022-08-14T07:22:10;100582.88;;;25.96;65.24
5812;BME280;2932;52.400;9.558;2022-08-14T07:24:35;100587.50;;;26.03;65.19
5812;BME280;2932;52.400;9.558;2022-08-14T07:27:01;100597.03;;;25.96;65.27
5812;BME280;2932;52.400;9.558;2022-08-14T07:29:26;100589.44;;;26.06;64.86
5812;BME280;2932;52.400;9.558;2022-08-14T07:31:52;100592.50;;;25.99;64.98
5812;BME280;2932;52.400;9.558;2022-08-14T07:34:18;100606.13;;;25.91;65.18
5812;BME280;2932;52.400;9.558;2022-08-14T07:36:43;100610.53;;;25.92;65.16
5812;BME280;2932;52.400;9.558;2022-08-14T07:39:08;100599.19;;;25.92;65.28
5812;BME280;2932;52.400;9.558;2022-08-14T07:41:34;100597.81;;;26.09;64.94
5812;BME280;2932;52.400;9.558;2022-08-14T07:43:59;100600.25;;;26.36;64.33
5812;BME280;2932;52.400;9.558;2022-08-14T07:46:25;100600.56;;;26.25;64.17
5812;BME280;2932;52.400;9.558;2022-08-14T07:48:50;100603.38;;;26.25;64.43
5812;BME280;2932;52.400;9.558;2022-08-14T07:51:18;100606.78;;;26.20;64.40
5812;BME280;2932;52.400;9.558;2022-08-14T07:53:44;100604.41;;;26.44;63.98
5812;BME280;2932;52.400;9.558;2022-08-14T07:56:09;100609.06;;;26.51;63.60
5812;BME280;2932;52.400;9.558;2022-08-14T07:58:35;100600.53;;;26.64;63.35
5812;BME280;2932;52.400;9.558;2022-08-14T08:01:03;100603.19;;;26.80;63.10
5812;BME280;2932;52.400;9.558;2022-08-14T08:03:32;100601.16;;;26.80;63.27
5812;BME280;2932;52.400;9.558;2022-08-14T08:05:58;100599.44;;;26.83;62.95
5812;BME280;2932;52.400;9.558;2022-08-14T08:08:24;100592.19;;;26.82;62.64
5812;BME280;2932;52.400;9.558;2022-08-14T08:10:54;100594.13;;;27.19;62.14
5812;BME280;2932;52.400;9.558;2022-08-14T08:13:20;100604.09;;;27.24;61.57
5812;BME280;2932;52.400;9.558;2022-08-14T08:15:48;100594.19;;;27.07;62.12
5812;BME280;2932;52.400;9.558;2022-08-14T08:18:15;100600.47;;;27.23;61.89
5812;BME280;2932;52.400;9.558;2022-08-14T08:20:46;100594.59;;;27.18;62.20
5812;BME280;2932;52.400;9.558;2022-08-14T08:23:12;100593.59;;;27.12;61.77
5812;BME280;2932;52.400;9.558;2022-08-14T08:25:40;100595.31;;;27.31;61.82
5812;BME280;2932;52.400;9.558;2022-08-14T08:30:38;100588.97;;;27.49;61.71
5812;BME280;2932;52.400;9.558;2022-08-14T08:33:04;100587.06;;;27.68;61.18
5812;BME280;2932;52.400;9.558;2022-08-14T08:35:32;100592.16;;;27.73;60.39
5812;BME280;2932;52.400;9.558;2022-08-14T08:38:10;100599.00;;;27.84;60.52
5812;BME280;2932;52.400;9.558;2022-08-14T08:40:40;100591.53;;;27.78;60.96
5812;BME280;2932;52.400;9.558;2022-08-14T08:43:08;100583.91;;;27.97;60.38
5812;BME280;2932;52.400;9.558;2022-08-14T08:45:35;100590.22;;;28.01;59.92
5812;BME280;2932;52.400;9.558;2022-08-14T08:48:02;100583.72;;;27.91;59.93
5812;BME280;2932;52.400;9.558;2022-08-14T08:50:30;100580.88;;;27.91;60.21
5812;BME280;2932;52.400;9.558;2022-08-14T08:52:58;100571.25;;;28.29;59.38
5812;BME280;2932;52.400;9.558;2022-08-14T08:55:44;100561.22;;;28.15;59.60
5812;BME280;2932;52.400;9.558;2022-08-14T08:58:12;100559.91;;;28.38;59.22
5812;BME280;2932;52.400;9.558;2022-08-14T09:00:39;100562.75;;;28.38;59.16
5812;BME280;2932;52.400;9.558;2022-08-14T09:03:09;100564.75;;;28.28;58.75
5812;BME280;2932;52.400;9.558;2022-08-14T09:05:36;100563.06;;;28.49;59.54
5812;BME280;2932;52.400;9.558;2022-08-14T09:10:38;100546.00;;;28.58;58.39
5812;BME280;2932;52.400;9.558;2022-08-14T09:13:03;100544.13;;;28.73;57.37
5812;BME280;2932;52.400;9.558;2022-08-14T09:15:29;100545.06;;;28.61;57.71
5812;BME280;2932;52.400;9.558;2022-08-14T09:17:56;100538.53;;;28.42;57.59
5812;BME280;2932;52.400;9.558;2022-08-14T09:20:22;100537.63;;;28.54;57.46
5812;BME280;2932;52.400;9.558;2022-08-14T09:22:48;100525.47;;;28.81;56.74
5812;BME280;2932;52.400;9.558;2022-08-14T09:25:17;100532.25;;;28.57;57.92
5812;BME280;2932;52.400;9.558;2022-08-14T09:27:42;100514.72;;;28.76;57.01
5812;BME280;2932;52.400;9.558;2022-08-14T09:30:09;100518.34;;;29.04;56.69
5812;BME280;2932;52.400;9.558;2022-08-14T09:32:49;100528.63;;;29.11;56.58
5812;BME280;2932;52.400;9.558;2022-08-14T09:35:32;100515.28;;;29.35;56.32
5812;BME280;2932;52.400;9.558;2022-08-14T09:41:29;100502.78;;;29.51;55.62
5812;BME280;2932;52.400;9.558;2022-08-14T09:46:31;100490.81;;;29.71;54.97
5812;BME280;2932;52.400;9.558;2022-08-14T09:48:59;100483.09;;;29.95;55.08
5812;BME280;2932;52.400;9.558;2022-08-14T09:51:24;100483.06;;;30.04;54.32
5812;BME280;2932;52.400;9.558;2022-08-14T09:54:17;100480.72;;;29.94;54.33
5812;BME280;2932;52.400;9.558;2022-08-14T09:56:49;100475.47;;;30.01;54.28
5812;BME280;2932;52.400;9.558;2022-08-14T09:59:16;100484.41;;;30.18;54.16
5812;BME280;2932;52.400;9.558;2022-08-14T10:01:47;100469.81;;;30.16;54.29
5812;BME280;2932;52.400;9.558;2022-08-14T10:04:22;100461.06;;;30.43;53.97
5812;BME280;2932;52.400;9.558;2022-08-14T10:06:49;100470.06;;;30.51;53.98
5812;BME280;2932;52.400;9.558;2022-08-14T10:11:54;100458.75;;;30.95;52.44
5812;BME280;2932;52.400;9.558;2022-08-14T10:14:21;100448.19;;;31.01;52.02
5812;BME280;2932;52.400;9.558;2022-08-14T10:16:51;100452.03;;;30.98;52.38
5812;BME280;2932;52.400;9.558;2022-08-14T10:19:20;100448.31;;;31.22;51.83
5812;BME280;2932;52.400;9.558;2022-08-14T10:24:39;100455.28;;;30.76;51.70
5812;BME280;2932;52.400;9.558;2022-08-14T10:27:16;100449.22;;;30.60;51.87
5812;BME280;2932;52.400;9.558;2022-08-14T10:29:47;100443.94;;;30.82;51.66
5812;BME280;2932;52.400;9.558;2022-08-14T10:32:13;100433.50;;;30.94;51.48
5812;BME280;2932;52.400;9.558;2022-08-14T10:34:39;100429.00;;;31.31;50.91
5812;BME280;2932;52.400;9.558;2022-08-14T10:37:06;100435.59;;;30.78;51.29
5812;BME280;2932;52.400;9.558;2022-08-14T10:39:32;100430.84;;;30.90;51.52
5812;BME280;2932;52.400;9.558;2022-08-14T10:42:03;100425.72;;;31.38;50.92
5812;BME280;2932;52.400;9.558;2022-08-14T10:44:41;100425.72;;;31.38;51.01
5812;BME280;2932;52.400;9.558;2022-08-14T10:47:10;100423.66;;;31.24;50.54
5812;BME280;2932;52.400;9.558;2022-08-14T10:49:41;100423.56;;;31.33;49.77
5812;BME280;2932;52.400;9.558;2022-08-14T10:52:19;100418.25;;;31.26;49.60
5812;BME280;2932;52.400;9.558;2022-08-14T10:54:46;100425.94;;;31.20;49.86
5812;BME280;2932;52.400;9.558;2022-08-14T10:57:21;100417.78;;;31.13;50.30
5812;BME280;2932;52.400;9.558;2022-08-14T10:59:58;100408.00;;;31.34;49.90
5812;BME280;2932;52.400;9.558;2022-08-14T11:02:28;100401.94;;;31.97;48.90
5812;BME280;2932;52.400;9.558;2022-08-14T11:07:28;100396.56;;;31.34;49.49
5812;BME280;2932;52.400;9.558;2022-08-14T11:09:56;100390.75;;;31.78;48.97
5812;BME280;2932;52.400;9.558;2022-08-14T11:12:23;100410.75;;;31.43;48.97
5812;BME280;2932;52.400;9.558;2022-08-14T11:14:57;100393.88;;;31.45;48.77
5812;BME280;2932;52.400;9.558;2022-08-14T11:17:34;100384.97;;;31.93;48.40
5812;BME280;2932;52.400;9.558;2022-08-14T11:20:02;100383.91;;;32.31;47.95
5812;BME280;2932;52.400;9.558;2022-08-14T11:22:30;100379.31;;;32.19;47.64
5812;BME280;2932;52.400;9.558;2022-08-14T11:25:01;100383.09;;;32.10;48.34
5812;BME280;2932;52.400;9.558;2022-08-14T11:27:28;100370.22;;;32.21;47.36
5812;BME280;2932;52.400;9.558;2022-08-14T11:30:00;100367.91;;;32.45;46.87
5812;BME280;2932;52.400;9.558;2022-08-14T11:32:27;100367.78;;;32.34;46.78
5812;BME280;2932;52.400;9.558;2022-08-14T11:34:53;100358.69;;;32.61;46.55
5812;BME280;2932;52.400;9.558;2022-08-14T11:37:18;100352.47;;;32.63;46.58
5812;BME280;2932;52.400;9.558;2022-08-14T11:39:45;100362.56;;;32.78;46.38
5812;BME280;2932;52.400;9.558;2022-08-14T11:42:19;100360.25;;;33.14;45.98
5812;BME280;2932;52.400;9.558;2022-08-14T11:44:45;100351.91;;;33.47;45.56
5812;BME280;2932;52.400;9.558;2022-08-14T11:47:11;100357.84;;;33.07;45.49
5812;BME280;2932;52.400;9.558;2022-08-14T11:49:46;100345.75;;;33.66;44.92
5812;BME280;2932;52.400;9.558;2022-08-14T11:52:16;100343.97;;;33.31;44.67
5812;BME280;2932;52.400;9.558;2022-08-14T11:54:43;100339.47;;;33.62;44.70
5812;BME280;2932;52.400;9.558;2022-08-14T11:57:17;100328.69;;;33.94;44.63
5812;BME280;2932;52.400;9.558;2022-08-14T12:00:01;100335.28;;;33.63;44.72
5812;BME280;2932;52.400;9.558;2022-08-14T12:02:26;100330.63;;;32.65;45.78
5812;BME280;2932;52.400;9.558;2022-08-14T12:04:52;100337.91;;;32.40;46.25
5812;BME280;2932;52.400;9.558;2022-08-14T12:07:18;100339.81;;;32.49;45.95
5812;BME280;2932;52.400;9.558;2022-08-14T12:09:45;100335.00;;;32.35;46.17
5812;BME280;2932;52.400;9.558;2022-08-14T12:14:52;100335.56;;;32.65;45.98
5812;BME280;2932;52.400;9.558;2022-08-14T12:17:23;100316.28;;;32.65;45.54
5812;BME280;2932;52.400;9.558;2022-08-14T12:19:55;100316.00;;;32.63;45.68
5812;BME280;2932;52.400;9.558;2022-08-14T12:22:40;100315.97;;;32.32;45.82
5812;BME280;2932;52.400;9.558;2022-08-14T12:25:08;100308.72;;;32.36;45.89
5812;BME280;2932;52.400;9.558;2022-08-14T12:27:44;100303.41;;;32.81;45.21
5812;BME280;2932;52.400;9.558;2022-08-14T12:30:28;100315.09;;;32.52;45.44
5812;BME280;2932;52.400;9.558;2022-08-14T12:32:53;100302.16;;;32.10;45.59
5812;BME280;2932;52.400;9.558;2022-08-14T12:35:20;100307.75;;;32.45;45.79
5812;BME280;2932;52.400;9.558;2022-08-14T12:37:49;100306.22;;;32.49;45.70
5812;BME280;2932;52.400;9.558;2022-08-14T12:40:16;100301.63;;;32.58;45.36
5812;BME280;2932;52.400;9.558;2022-08-14T12:42:43;100285.09;;;32.73;45.46
5812;BME280;2932;52.400;9.558;2022-08-14T12:45:10;100284.91;;;32.76;45.44
5812;BME280;2932;52.400;9.558;2022-08-14T12:47:40;100285.75;;;32.88;45.26
5812;BME280;2932;52.400;9.558;2022-08-14T12:50:08;100269.13;;;32.92;45.65
5812;BME280;2932;52.400;9.558;2022-08-14T12:52:36;100272.84;;;32.72;45.54
5812;BME280;2932;52.400;9.558;2022-08-14T12:55:09;100274.78;;;32.55;46.00
5812;BME280;2932;52.400;9.558;2022-08-14T12:57:43;100262.03;;;32.56;45.95
5812;BME280;2932;52.400;9.558;2022-08-14T13:00:13;100258.38;;;33.19;44.72
5812;BME280;2932;52.400;9.558;2022-08-14T13:02:43;100252.28;;;33.48;44.26
5812;BME280;2932;52.400;9.558;2022-08-14T13:05:10;100250.38;;;32.97;44.68
5812;BME280;2932;52.400;9.558;2022-08-14T13:07:37;100251.56;;;33.16;44.75
5812;BME280;2932;52.400;9.558;2022-08-14T13:10:05;100244.38;;;33.32;44.35
5812;BME280;2932;52.400;9.558;2022-08-14T13:12:32;100241.66;;;33.17;44.58
5812;BME280;2932;52.400;9.558;2022-08-14T13:14:58;100234.50;;;33.38;44.34
5812;BME280;2932;52.400;9.558;2022-08-14T13:17:25;100231.84;;;33.29;44.82
5812;BME280;2932;52.400;9.558;2022-08-14T13:19:55;100218.63;;;33.00;45.11
5812;BME280;2932;52.400;9.558;2022-08-14T13:22:22;100224.22;;;33.26;45.03
5812;BME280;2932;52.400;9.558;2022-08-14T13:24:51;100226.06;;;32.87;44.93
5812;BME280;2932;52.400;9.558;2022-08-14T13:27:21;100219.69;;;33.03;44.54
5812;BME280;2932;52.400;9.558;2022-08-14T13:29:52;100207.91;;;32.95;44.66
5812;BME280;2932;52.400;9.558;2022-08-14T13:32:23;100203.16;;;33.29;44.61
5812;BME280;2932;52.400;9.558;2022-08-14T13:34:49;100199.63;;;33.51;44.32
5812;BME280;2932;52.400;9.558;2022-08-14T13:37:15;100206.19;;;33.14;44.32
5812;BME280;2932;52.400;9.558;2022-08-14T13:39:49;100211.69;;;33.18;44.79